createdAt,value
2018-01-14T04:32:35.539Z,32.88
2018-01-14T04:35:09.280Z,33.03
2018-01-14T04:37:43.068Z,35.38
2018-01-14T04:40:16.802Z,35.35
2018-01-14T04:42:51.567Z,29.00
2018-01-14T04:45:25.452Z,30.48
2018-01-14T04:47:59.267Z,36.28
2018-01-14T04:50:33.104Z,35.08
2018-01-14T04:53:07.723Z,30.58
2018-01-14T04:55:41.546Z,31.77
2018-01-14T04:58:34.945Z,35.25
2018-01-14T05:01:09.490Z,32.47
2018-01-14T05:03:43.159Z,33.03
2018-01-14T05:06:17.013Z,32.15
2018-01-14T05:08:50.751Z,29.10
2018-01-14T05:11:24.479Z,32.45
2018-01-14T05:13:58.939Z,32.47
2018-01-14T05:16:32.666Z,34.45
2018-01-14T05:19:06.502Z,29.20
2018-01-14T05:21:40.287Z,33.92
2018-01-14T05:24:14.110Z,32.30
2018-01-14T05:26:48.765Z,35.35
2018-01-14T05:29:22.515Z,32.15
2018-01-14T05:31:56.936Z,30.02
2018-01-14T05:34:30.675Z,29.98
2018-01-14T05:37:04.255Z,29.17
2018-01-14T05:39:37.967Z,32.25
2018-01-14T05:42:12.538Z,32.53
2018-01-14T05:44:46.455Z,27.77
2018-01-14T05:47:20.195Z,30.37
2018-01-14T05:49:53.927Z,31.02
2018-01-14T05:52:27.728Z,27.70
2018-01-14T05:55:01.556Z,26.80
2018-01-14T05:57:35.452Z,31.12
2018-01-14T06:00:09.211Z,31.08
2018-01-14T06:02:42.935Z,29.50
2018-01-14T06:05:16.619Z,29.52
2018-01-14T06:07:50.263Z,29.45
2018-01-14T06:10:24.050Z,29.65
2018-01-14T06:12:58.803Z,33.67
2018-01-14T06:15:32.635Z,29.20
2018-01-14T06:18:06.395Z,30.50
2018-01-14T06:20:40.119Z,30.25
2018-01-14T06:23:14.999Z,32.50
2018-01-14T06:25:48.744Z,33.38
2018-01-14T06:28:23.471Z,28.95
2018-01-14T06:30:57.396Z,30.40
2018-01-14T06:33:31.108Z,31.30
2018-01-14T06:36:04.844Z,29.10
2018-01-14T06:38:38.676Z,29.73
2018-01-14T06:41:12.484Z,31.35
2018-01-14T06:43:47.064Z,29.00
2018-01-14T06:46:21.009Z,28.25
2018-01-14T06:48:55.111Z,31.67
2018-01-14T06:51:29.736Z,27.67
2018-01-14T06:54:03.444Z,35.67
2018-01-14T06:56:37.217Z,29.30
2018-01-14T06:59:11.046Z,24.63
2018-01-14T07:01:44.856Z,26.27
2018-01-14T07:04:18.670Z,29.02
2018-01-14T07:06:52.328Z,28.52
2018-01-14T07:09:26.127Z,25.00
2018-01-14T07:11:59.880Z,33.20
2018-01-14T07:14:33.762Z,23.85
2018-01-14T07:17:07.485Z,21.83
2018-01-14T07:19:41.331Z,25.10
2018-01-14T07:22:15.068Z,27.95
2018-01-14T07:24:49.174Z,26.98
2018-01-14T07:27:23.691Z,28.58
2018-01-14T07:29:57.493Z,28.60
2018-01-14T07:32:31.919Z,23.05
2018-01-14T07:35:05.655Z,23.12
2018-01-14T07:37:39.445Z,26.12
2018-01-14T07:40:13.192Z,22.30
2018-01-14T07:42:46.984Z,23.50
2018-01-14T07:45:20.862Z,26.02
2018-01-14T07:47:55.261Z,24.87
2018-01-14T07:50:28.932Z,26.73
2018-01-14T07:53:02.730Z,24.02
2018-01-14T07:55:36.527Z,24.20
2018-01-14T07:58:10.314Z,19.95
2018-01-14T08:00:44.047Z,26.25
2018-01-14T08:03:17.642Z,21.85
2018-01-14T08:05:51.481Z,26.95
2018-01-14T08:08:25.252Z,21.35
2018-01-14T08:10:59.179Z,23.80
2018-01-14T08:13:32.855Z,23.87
2018-01-14T08:16:06.695Z,22.90
2018-01-14T08:18:41.163Z,23.98
2018-01-14T08:21:14.968Z,23.60
2018-01-14T08:23:48.783Z,22.80
2018-01-14T08:26:22.472Z,25.08
2018-01-14T08:28:56.324Z,21.85
2018-01-14T08:31:30.135Z,22.80
2018-01-14T08:34:03.859Z,23.67
2018-01-14T08:36:37.631Z,21.70
2018-01-14T08:39:11.637Z,21.98
2018-01-14T08:41:45.351Z,26.95
2018-01-14T08:44:20.016Z,22.45
2018-01-14T08:46:54.449Z,26.37
2018-01-14T08:49:28.194Z,22.65
2018-01-14T08:52:02.000Z,22.05
2018-01-14T08:54:35.762Z,23.50
2018-01-14T08:57:09.379Z,19.70
2018-01-14T08:59:43.207Z,20.77
2018-01-14T09:02:16.911Z,20.10
2018-01-14T09:04:50.714Z,18.65
2018-01-14T09:07:25.343Z,22.00
2018-01-14T09:09:59.885Z,22.58
2018-01-14T09:12:34.366Z,22.10
2018-01-14T09:15:09.041Z,18.52
2018-01-14T09:17:43.617Z,21.98
2018-01-14T09:20:17.411Z,18.02
2018-01-14T09:22:51.256Z,23.20
2018-01-14T09:25:25.110Z,23.52
2018-01-14T09:27:59.633Z,23.92
2018-01-14T09:30:46.180Z,17.45
2018-01-14T09:33:20.005Z,19.23
2018-01-14T09:35:54.616Z,19.62
2018-01-14T09:38:28.419Z,18.77
2018-01-14T09:41:02.240Z,19.30
2018-01-14T09:43:36.027Z,18.73
2018-01-14T09:46:09.936Z,19.30
2018-01-14T09:48:44.441Z,21.20
2018-01-14T09:51:18.167Z,23.75
2018-01-14T09:53:52.798Z,20.62
2018-01-14T09:56:26.625Z,21.85
2018-01-14T09:59:00.404Z,18.08
2018-01-14T10:01:35.035Z,21.75
2018-01-14T10:04:08.651Z,15.98
2018-01-14T10:06:42.435Z,17.00
2018-01-14T10:09:16.250Z,18.58
2018-01-14T10:11:50.064Z,23.10
2018-01-14T10:14:23.908Z,19.65
2018-01-14T10:16:58.473Z,21.42
2018-01-14T10:19:32.211Z,20.90
2018-01-14T10:22:05.879Z,23.50
2018-01-14T10:24:39.712Z,19.55
2018-01-14T10:27:13.467Z,23.58
2018-01-14T10:29:48.044Z,19.40
2018-01-14T10:32:21.766Z,24.08
2018-01-14T10:34:56.379Z,18.10
2018-01-14T10:37:29.959Z,19.52
2018-01-14T10:40:03.728Z,19.55
2018-01-14T10:42:37.583Z,22.30
2018-01-14T10:45:12.157Z,20.35
2018-01-14T10:47:46.731Z,20.05
2018-01-14T10:50:20.572Z,21.42
2018-01-14T10:52:54.333Z,22.58
2018-01-14T10:55:28.556Z,19.55
2018-01-14T10:58:02.271Z,21.40
2018-01-14T11:00:41.670Z,22.98
2018-01-14T11:03:15.355Z,21.15
2018-01-14T11:05:49.295Z,22.02
2018-01-14T11:08:23.043Z,21.23
2018-01-14T11:10:57.534Z,21.17
2018-01-14T11:13:31.327Z,21.42
2018-01-14T11:16:06.421Z,20.15
2018-01-14T11:18:40.008Z,20.37
2018-01-14T11:21:14.583Z,20.67
2018-01-14T11:23:48.280Z,22.05
2018-01-14T11:26:22.249Z,20.37
2018-01-14T11:28:56.010Z,26.12
2018-01-14T11:31:30.543Z,19.80
2018-01-14T11:34:05.042Z,20.85
2018-01-14T11:36:38.913Z,18.12
2018-01-14T11:39:12.629Z,17.12
2018-01-14T11:41:47.270Z,16.62
2018-01-14T11:44:21.701Z,20.10
2018-01-14T11:46:55.447Z,19.23
2018-01-14T11:49:29.223Z,15.95
2018-01-14T11:52:03.298Z,19.52
2018-01-14T11:54:37.797Z,22.55
2018-01-14T11:57:12.251Z,18.77
2018-01-14T11:59:45.952Z,18.80
2018-01-14T12:02:19.750Z,18.87
2018-01-14T12:04:53.500Z,16.77
2018-01-14T12:07:27.207Z,16.92
2018-01-14T12:10:01.101Z,16.65
2018-01-14T12:12:35.612Z,15.93
2018-01-14T12:15:09.316Z,14.52
2018-01-14T12:17:43.019Z,14.95
2018-01-14T12:20:16.824Z,16.20
2018-01-14T12:22:50.635Z,17.73
2018-01-14T12:25:24.432Z,14.68
2018-01-14T12:27:58.210Z,19.67
2018-01-14T12:30:32.067Z,15.13
2018-01-14T12:33:06.745Z,14.35
2018-01-14T12:35:41.283Z,15.43
2018-01-14T12:38:15.112Z,18.05
2018-01-14T12:40:48.955Z,12.37
2018-01-14T12:43:22.738Z,18.20
2018-01-14T12:45:56.592Z,11.93
2018-01-14T12:48:30.452Z,15.45
2018-01-14T12:51:04.252Z,13.90
2018-01-14T12:53:37.959Z,19.58
2018-01-14T12:56:11.772Z,14.55
2018-01-14T12:58:45.532Z,12.82
2018-01-14T13:01:19.269Z,13.32
2018-01-14T13:03:53.093Z,16.00
2018-01-14T13:06:26.865Z,17.58
2018-01-14T13:09:01.419Z,14.25
2018-01-14T13:11:35.900Z,13.75
2018-01-14T13:14:10.507Z,13.62
2018-01-14T13:16:44.304Z,14.32
2018-01-14T13:19:18.275Z,16.20
2018-01-14T13:21:52.076Z,15.75
2018-01-14T13:24:25.925Z,14.57
2018-01-14T13:26:59.653Z,14.10
2018-01-14T13:29:33.481Z,12.10
2018-01-14T13:32:07.317Z,16.05
2018-01-14T13:34:41.075Z,16.67
2018-01-14T13:37:14.863Z,15.48
2018-01-14T13:39:49.515Z,14.25
2018-01-14T13:42:23.200Z,14.52
2018-01-14T13:44:57.760Z,14.15
2018-01-14T13:47:31.675Z,12.88
2018-01-14T13:50:05.596Z,14.93
2018-01-14T13:52:40.320Z,13.98
2018-01-14T13:55:14.139Z,12.43
2018-01-14T13:57:47.834Z,12.37
2018-01-14T14:00:21.576Z,18.70
2018-01-14T14:02:56.200Z,12.88
2018-01-14T14:05:30.775Z,13.98
2018-01-14T14:08:04.341Z,14.77
2018-01-14T14:10:38.223Z,11.95
2018-01-14T14:13:12.093Z,12.80
2018-01-14T14:15:45.859Z,17.05
2018-01-14T14:18:19.617Z,16.33
2018-01-14T14:20:53.587Z,10.95
2018-01-14T14:23:27.432Z,10.70
2018-01-14T14:26:01.437Z,13.75
2018-01-14T14:28:35.051Z,10.02
2018-01-14T14:31:08.843Z,10.25
2018-01-14T14:33:42.651Z,12.00
2018-01-14T14:36:16.483Z,10.65
2018-01-14T14:38:51.144Z,10.85
2018-01-14T14:41:25.016Z,12.50
2018-01-14T14:43:58.843Z,12.82
2018-01-14T14:46:32.631Z,9.93
2018-01-14T14:49:07.007Z,13.55
2018-01-14T14:51:41.639Z,12.43
2018-01-14T14:54:15.436Z,11.07
2018-01-14T14:56:50.046Z,9.57
2018-01-14T14:59:23.621Z,11.63
2018-01-14T15:01:58.242Z,13.60
2018-01-14T15:04:31.859Z,11.88
2018-01-14T15:07:06.496Z,11.63
2018-01-14T15:09:40.393Z,9.52
2018-01-14T15:12:14.155Z,11.15
2018-01-14T15:14:48.568Z,13.32
2018-01-14T15:17:22.235Z,9.18
2018-01-14T15:19:56.113Z,7.95
2018-01-14T15:22:29.880Z,9.75
2018-01-14T15:25:03.703Z,8.95
2018-01-14T15:27:37.435Z,10.55
2018-01-14T15:30:11.298Z,11.38
2018-01-14T15:32:45.829Z,9.38
2018-01-14T15:35:19.576Z,13.60
2018-01-14T15:37:53.322Z,10.90
2018-01-14T15:40:26.945Z,11.93
2018-01-14T15:43:00.882Z,11.10
2018-01-14T15:45:34.952Z,18.60
2018-01-14T15:48:09.579Z,12.48
2018-01-14T15:50:43.291Z,10.45
2018-01-14T15:53:17.091Z,10.60
2018-01-14T15:55:50.859Z,10.82
2018-01-14T15:58:24.515Z,14.90
2018-01-14T16:00:58.277Z,10.75
2018-01-14T16:03:32.421Z,14.75
2018-01-14T16:06:06.119Z,14.15
2018-01-14T16:08:39.907Z,10.85
2018-01-14T16:11:13.687Z,11.10
2018-01-14T16:13:47.593Z,11.20
2018-01-14T16:16:21.200Z,12.45
2018-01-14T16:18:55.921Z,18.87
2018-01-14T16:21:30.433Z,11.98
2018-01-14T16:24:04.393Z,14.25
2018-01-14T16:26:38.220Z,11.27
2018-01-14T16:29:12.109Z,10.50
2018-01-14T16:31:45.970Z,11.88
2018-01-14T16:34:19.849Z,15.13
2018-01-14T16:36:54.428Z,12.30
2018-01-14T16:39:28.279Z,12.10
2018-01-14T16:42:02.171Z,13.20
2018-01-14T16:44:36.028Z,10.02
2018-01-14T16:47:10.574Z,12.85
2018-01-14T16:49:44.511Z,10.95
2018-01-14T16:52:18.224Z,10.30
2018-01-14T16:54:52.063Z,14.18
2018-01-14T16:57:26.250Z,12.93
2018-01-14T17:00:00.101Z,15.70
2018-01-14T17:02:33.760Z,20.23
2018-01-14T17:05:07.756Z,14.60
2018-01-14T17:07:41.716Z,12.40
2018-01-14T17:10:15.563Z,12.25
2018-01-14T17:12:49.318Z,12.88
2018-01-14T17:15:23.393Z,11.88
2018-01-14T17:17:57.493Z,15.52
2018-01-14T17:20:31.526Z,15.43
2018-01-14T17:23:05.347Z,13.68
2018-01-14T17:25:39.401Z,13.30
2018-01-14T17:28:13.207Z,15.38
2018-01-14T17:30:47.257Z,16.85
2018-01-14T17:33:21.067Z,14.80
2018-01-14T17:35:56.427Z,18.60
2018-01-14T17:38:30.337Z,17.08
2018-01-14T17:41:04.852Z,17.67
2018-01-14T17:43:39.465Z,13.55
2018-01-14T17:46:13.521Z,13.60
2018-01-14T17:48:47.967Z,17.25
2018-01-14T17:51:21.889Z,18.60
2018-01-14T17:53:56.578Z,18.77
2018-01-14T17:56:30.935Z,28.33
2018-01-14T17:59:04.845Z,16.17
2018-01-14T18:01:38.681Z,21.73
2018-01-14T18:04:13.498Z,14.87
2018-01-14T18:06:47.345Z,20.20
2018-01-14T18:09:21.130Z,16.23
2018-01-14T18:11:54.927Z,16.90
2018-01-14T18:14:28.753Z,66.57
2018-01-14T18:17:05.131Z,22.20
2018-01-14T18:19:38.995Z,18.02
2018-01-14T18:22:12.810Z,19.98
2018-01-14T18:24:46.848Z,22.37
2018-01-14T18:27:20.723Z,22.58
2018-01-14T18:29:54.767Z,20.77
2018-01-14T18:32:28.694Z,21.35
2018-01-14T18:35:02.372Z,22.10
2018-01-14T18:37:37.093Z,18.33
2018-01-14T18:40:10.891Z,20.05
2018-01-14T18:42:45.024Z,21.02
2018-01-14T18:45:19.077Z,17.10
2018-01-14T18:47:52.832Z,23.45
2018-01-14T18:50:26.572Z,20.35
2018-01-14T18:53:02.344Z,23.23
2018-01-14T18:55:36.053Z,19.58
2018-01-14T18:58:09.876Z,16.75
2018-01-14T19:00:43.716Z,17.48
2018-01-14T19:03:17.591Z,18.23
2018-01-14T19:05:51.275Z,28.75
2018-01-14T19:08:25.204Z,18.08
2018-01-14T19:10:59.867Z,18.60
2018-01-14T19:13:34.375Z,17.92
2018-01-14T19:16:08.393Z,19.30
2018-01-14T19:18:43.000Z,17.37
2018-01-14T19:21:16.675Z,23.10
2018-01-14T19:23:50.456Z,20.08
2018-01-14T19:26:24.347Z,21.15
2018-01-14T19:28:58.163Z,18.65
2018-01-14T19:31:32.045Z,19.10
2018-01-14T19:34:05.885Z,19.12
2018-01-14T19:36:39.784Z,18.25
2018-01-14T19:39:14.417Z,18.50
2018-01-14T19:41:48.976Z,20.10
2018-01-14T19:44:23.544Z,18.75
2018-01-14T19:46:58.700Z,19.87
2018-01-14T19:49:33.273Z,18.20
2018-01-14T19:52:07.000Z,24.17
2018-01-14T19:54:40.898Z,21.35
2018-01-14T19:57:14.764Z,18.95
2018-01-14T19:59:49.222Z,19.33
2018-01-14T20:02:23.358Z,22.42
2018-01-14T20:04:57.907Z,17.05
2018-01-14T20:07:31.744Z,20.00
2018-01-14T20:10:06.366Z,17.62
2018-01-14T20:12:40.117Z,18.80
2018-01-14T20:15:14.641Z,21.77
2018-01-14T20:17:48.456Z,24.55
2018-01-14T20:20:23.219Z,21.87
2018-01-14T20:22:57.045Z,21.70
2018-01-14T20:25:31.822Z,16.95
2018-01-14T20:28:05.632Z,20.98
2018-01-14T20:30:39.523Z,22.55
2018-01-14T20:33:14.340Z,25.77
2018-01-14T20:35:48.182Z,30.58
2018-01-14T20:38:22.161Z,20.60
2018-01-14T20:40:55.947Z,19.05
2018-01-14T20:43:30.617Z,20.08
2018-01-14T20:46:04.429Z,18.40
2018-01-14T20:48:38.267Z,20.60
2018-01-14T20:51:12.146Z,19.98
2018-01-14T20:53:47.423Z,20.52
2018-01-14T20:56:22.084Z,18.52
2018-01-14T20:58:55.868Z,20.30
2018-01-14T21:01:31.411Z,17.20
2018-01-14T21:04:07.052Z,17.15
2018-01-14T21:06:40.897Z,21.40
2018-01-14T21:09:14.862Z,16.55
2018-01-14T21:11:48.705Z,16.87
2018-01-14T21:14:22.508Z,18.92
2018-01-14T21:16:57.100Z,17.12
2018-01-14T21:19:30.898Z,15.50
2018-01-14T21:22:04.889Z,17.52
2018-01-14T21:24:38.647Z,21.05
2018-01-14T21:27:12.582Z,17.50
2018-01-14T21:29:46.377Z,15.98
2018-01-14T21:32:21.007Z,18.42
2018-01-14T21:34:55.643Z,19.80
2018-01-14T21:37:29.625Z,19.12
2018-01-14T21:40:03.586Z,20.10
2018-01-14T21:42:37.396Z,18.37
2018-01-14T21:45:12.007Z,21.25
2018-01-14T21:47:46.702Z,20.58
2018-01-14T21:50:20.497Z,20.75
2018-01-14T21:52:55.129Z,20.27
2018-01-14T21:55:28.969Z,20.15
2018-01-14T21:58:02.785Z,18.12
